createdAt,value
2022-09-23T00:00:59.588Z,9.45
2022-09-23T00:03:28.736Z,9.51
2022-09-23T00:06:02.819Z,9.57
2022-09-23T00:08:29.961Z,9.69
2022-09-23T00:10:56.866Z,9.66
2022-09-23T00:13:26.026Z,9.74
2022-09-23T00:15:52.740Z,9.64
2022-09-23T00:18:20.772Z,9.60
2022-09-23T00:20:47.219Z,9.56
2022-09-23T00:23:13.784Z,9.39
2022-09-23T00:25:40.227Z,9.62
2022-09-23T00:28:06.582Z,9.61
2022-09-23T00:30:33.103Z,9.60
2022-09-23T00:33:00.206Z,9.65
2022-09-23T00:35:26.821Z,9.72
2022-09-23T00:37:53.217Z,9.72
2022-09-23T00:40:19.721Z,9.57
2022-09-23T00:42:48.925Z,9.49
2022-09-23T00:45:17.018Z,9.68
2022-09-23T00:47:53.233Z,9.70
2022-09-23T00:50:28.171Z,9.55
2022-09-23T00:52:56.773Z,9.57
2022-09-23T00:55:28.180Z,9.63
2022-09-23T00:57:56.880Z,9.55
2022-09-23T01:00:24.040Z,9.64
2022-09-23T01:02:51.466Z,9.45
2022-09-23T01:05:19.405Z,9.46
2022-09-23T01:07:46.516Z,9.41
2022-09-23T01:10:16.305Z,9.46
2022-09-23T01:13:03.400Z,9.47
2022-09-23T01:15:44.097Z,9.51
2022-09-23T01:18:16.334Z,9.48
2022-09-23T01:21:17.122Z,9.48
2022-09-23T01:24:02.423Z,9.46
2022-09-23T01:27:06.535Z,9.41
2022-09-23T01:29:48.048Z,9.46
2022-09-23T01:32:25.140Z,9.35
2022-09-23T01:35:13.526Z,9.25
2022-09-23T01:37:50.881Z,9.39
2022-09-23T01:40:39.223Z,9.42
2022-09-23T01:43:18.365Z,9.32
2022-09-23T01:45:53.235Z,9.36
2022-09-23T01:48:28.551Z,9.39
2022-09-23T01:51:01.503Z,9.33
2022-09-23T01:53:56.612Z,9.30
2022-09-23T01:56:32.471Z,9.35
2022-09-23T01:59:09.246Z,9.28
2022-09-23T02:01:42.432Z,9.24
2022-09-23T02:04:22.327Z,9.15
2022-09-23T02:06:58.208Z,9.25
2022-09-23T02:09:29.681Z,9.15
2022-09-23T02:12:05.638Z,9.27
2022-09-23T02:14:38.908Z,9.34
2022-09-23T02:17:12.951Z,9.26
2022-09-23T02:20:04.369Z,9.18
2022-09-23T02:22:51.956Z,9.23
2022-09-23T02:25:21.435Z,9.18
2022-09-23T02:27:57.475Z,9.20
2022-09-23T02:30:31.889Z,9.10
2022-09-23T02:33:27.437Z,9.18
2022-09-23T02:36:52.854Z,9.21
2022-09-23T02:39:23.801Z,9.18
2022-09-23T02:42:07.604Z,9.19
2022-09-23T02:44:34.407Z,9.16
2022-09-23T02:47:00.938Z,9.21
2022-09-23T02:49:29.728Z,9.26
2022-09-23T02:51:59.822Z,9.27
2022-09-23T02:54:28.922Z,9.29
2022-09-23T02:56:55.409Z,9.21
2022-09-23T02:59:23.632Z,9.32
2022-09-23T03:02:05.004Z,9.20
2022-09-23T03:04:43.370Z,9.22
2022-09-23T03:07:18.934Z,9.15
2022-09-23T03:10:09.669Z,9.19
2022-09-23T03:12:54.382Z,9.07
2022-09-23T03:15:37.474Z,9.06
2022-09-23T03:18:31.592Z,9.03
2022-09-23T03:21:03.621Z,9.02
2022-09-23T03:23:35.746Z,9.03
2022-09-23T03:26:09.897Z,8.96
2022-09-23T03:28:37.234Z,8.82
2022-09-23T03:31:04.710Z,8.85
2022-09-23T03:33:33.094Z,8.88
2022-09-23T03:36:24.049Z,8.88
2022-09-23T03:38:54.577Z,8.84
2022-09-23T03:41:29.972Z,8.70
2022-09-23T03:43:58.919Z,8.66
2022-09-23T03:46:30.159Z,8.66
2022-09-23T03:49:02.565Z,8.61
2022-09-23T03:51:28.916Z,8.69
2022-09-23T03:53:55.353Z,8.58
2022-09-23T03:56:21.679Z,8.66
2022-09-23T03:58:48.810Z,8.54
2022-09-23T04:01:15.273Z,8.64
2022-09-23T04:03:41.833Z,8.62
2022-09-23T04:06:08.439Z,8.56
2022-09-23T04:08:34.803Z,8.47
2022-09-23T04:11:04.656Z,8.48
2022-09-23T04:13:31.805Z,8.44
2022-09-23T04:15:58.271Z,8.57
2022-09-23T04:18:24.673Z,8.45
2022-09-23T04:20:51.022Z,8.47
2022-09-23T04:23:17.466Z,8.39
2022-09-23T04:25:48.351Z,8.35
2022-09-23T04:28:15.084Z,8.29
2022-09-23T04:30:43.664Z,8.35
2022-09-23T04:33:11.206Z,8.39
2022-09-23T04:35:40.365Z,8.36
2022-09-23T04:38:07.112Z,8.42
2022-09-23T04:40:34.218Z,8.31
2022-09-23T04:43:00.691Z,8.37
2022-09-23T04:45:27.071Z,8.37
2022-09-23T04:47:53.388Z,8.40
2022-09-23T04:50:19.835Z,8.30
2022-09-23T04:52:46.367Z,8.40
2022-09-23T04:55:12.744Z,8.35
2022-09-23T04:57:39.141Z,8.35
2022-09-23T05:00:06.157Z,8.23
2022-09-23T05:02:34.134Z,8.30
2022-09-23T05:05:00.955Z,8.33
2022-09-23T05:07:27.317Z,8.24
2022-09-23T05:09:53.750Z,8.26
2022-09-23T05:12:20.077Z,8.28
2022-09-23T05:14:46.505Z,8.25
2022-09-23T05:17:12.885Z,8.16
2022-09-23T05:19:39.314Z,8.27
2022-09-23T05:22:05.951Z,8.32
2022-09-23T05:24:32.336Z,8.34
2022-09-23T05:26:58.660Z,8.35
2022-09-23T05:29:25.020Z,8.34
2022-09-23T05:31:51.497Z,8.44
2022-09-23T05:34:18.630Z,8.47
2022-09-23T05:36:45.019Z,8.43
2022-09-23T05:39:11.424Z,8.38
2022-09-23T05:41:38.290Z,8.47
2022-09-23T05:44:04.954Z,8.40
2022-09-23T05:46:32.069Z,8.42
2022-09-23T05:49:02.833Z,8.44
2022-09-23T05:51:31.283Z,8.41
2022-09-23T05:53:58.603Z,8.33
2022-09-23T05:56:27.302Z,8.43
2022-09-23T05:58:55.758Z,8.44
2022-09-23T06:01:27.796Z,8.39
2022-09-23T06:03:56.476Z,8.51
2022-09-23T06:06:31.698Z,8.62
2022-09-23T06:08:59.334Z,8.62
2022-09-23T06:11:26.785Z,8.73
2022-09-23T06:14:00.906Z,8.78
2022-09-23T06:16:28.983Z,8.81
2022-09-23T06:18:55.342Z,8.93
2022-09-23T06:21:21.732Z,8.95
2022-09-23T06:23:48.198Z,8.99
2022-09-23T06:26:16.383Z,9.00
2022-09-23T06:28:44.596Z,9.11
2022-09-23T06:31:16.331Z,9.27
2022-09-23T06:33:44.893Z,9.35
2022-09-23T06:36:17.821Z,9.46
2022-09-23T06:38:57.134Z,9.53
2022-09-23T06:41:23.534Z,9.72
2022-09-23T06:43:49.882Z,9.89
2022-09-23T06:46:17.197Z,10.07
2022-09-23T06:48:46.169Z,10.42
2022-09-23T06:51:20.231Z,10.67
2022-09-23T06:53:48.145Z,10.92
2022-09-23T06:56:16.768Z,11.13
2022-09-23T06:58:43.598Z,11.27
2022-09-23T07:01:15.941Z,11.54
2022-09-23T07:03:43.668Z,11.82
2022-09-23T07:06:10.380Z,11.87
2022-09-23T07:08:37.293Z,11.94
2022-09-23T07:11:06.446Z,12.10
2022-09-23T07:13:34.250Z,12.30
2022-09-23T07:16:04.461Z,12.42
2022-09-23T07:18:36.784Z,12.38
2022-09-23T07:21:09.802Z,12.49
2022-09-23T07:23:37.704Z,12.56
2022-09-23T07:26:04.903Z,12.65
2022-09-23T07:28:32.386Z,12.74
2022-09-23T07:31:04.319Z,12.81
2022-09-23T07:33:32.959Z,12.81
2022-09-23T07:36:13.838Z,12.82
2022-09-23T07:38:45.168Z,12.88
2022-09-23T07:41:15.474Z,12.85
2022-09-23T07:43:41.862Z,12.70
2022-09-23T07:46:11.087Z,12.73
2022-09-23T07:48:38.323Z,12.94
2022-09-23T07:51:18.295Z,12.92
2022-09-23T07:53:48.254Z,13.17
2022-09-23T07:56:15.481Z,13.18
2022-09-23T07:58:41.951Z,13.25
2022-09-23T08:01:11.183Z,13.36
2022-09-23T08:03:38.909Z,13.52
2022-09-23T08:06:12.362Z,13.61
2022-09-23T08:08:43.270Z,13.68
2022-09-23T08:11:12.005Z,13.84
2022-09-23T08:13:38.384Z,13.84
2022-09-23T08:16:05.032Z,13.97
2022-09-23T08:18:31.414Z,13.99
2022-09-23T08:20:57.822Z,14.05
2022-09-23T08:23:24.462Z,14.20
2022-09-23T08:25:59.672Z,14.39
2022-09-23T08:28:26.710Z,14.27
2022-09-23T08:30:53.299Z,14.49
2022-09-23T08:33:23.371Z,14.53
2022-09-23T08:35:51.006Z,14.81
2022-09-23T08:38:18.056Z,14.73
2022-09-23T08:40:48.772Z,14.81
2022-09-23T08:43:28.115Z,15.10
2022-09-23T08:45:56.906Z,15.09
2022-09-23T08:48:36.031Z,14.90
2022-09-23T08:51:06.346Z,14.95
2022-09-23T08:53:35.661Z,14.93
2022-09-23T08:56:23.334Z,14.90
2022-09-23T08:59:14.744Z,14.82
2022-09-23T09:01:50.098Z,14.93
2022-09-23T09:04:28.014Z,14.94
2022-09-23T09:07:35.763Z,15.01
2022-09-23T09:10:30.488Z,15.02
2022-09-23T09:13:07.299Z,15.02
2022-09-23T09:15:44.090Z,15.03
2022-09-23T09:18:14.497Z,15.05
2022-09-23T09:21:09.996Z,15.21
2022-09-23T09:23:54.333Z,15.28
2022-09-23T09:26:28.294Z,15.49
2022-09-23T09:29:17.170Z,15.85
2022-09-23T09:31:51.731Z,15.98
2022-09-23T09:34:24.188Z,16.02
2022-09-23T09:37:08.839Z,16.18
2022-09-23T09:39:36.139Z,16.33
2022-09-23T09:42:04.136Z,16.49
2022-09-23T09:44:58.455Z,16.70
2022-09-23T09:47:52.950Z,16.98
2022-09-23T09:50:52.205Z,17.01
2022-09-23T09:53:25.622Z,17.07
2022-09-23T09:56:04.360Z,17.49
2022-09-23T09:58:54.934Z,17.70
2022-09-23T10:01:30.070Z,17.98
2022-09-23T10:03:59.475Z,18.23
2022-09-23T10:06:36.012Z,18.07
2022-09-23T10:09:13.625Z,18.30
2022-09-23T10:11:41.191Z,18.50
2022-09-23T10:14:17.967Z,18.63
2022-09-23T10:16:47.051Z,18.57
2022-09-23T10:19:26.180Z,18.87
2022-09-23T10:21:59.751Z,18.74
2022-09-23T10:24:32.128Z,18.32
2022-09-23T10:27:01.570Z,18.20
2022-09-23T10:29:39.913Z,18.35
2022-09-23T10:32:20.478Z,18.41
2022-09-23T10:35:17.827Z,18.60
2022-09-23T10:37:46.690Z,18.59
2022-09-23T10:40:33.777Z,18.71
2022-09-23T10:43:32.535Z,18.82
2022-09-23T10:46:22.856Z,19.34
2022-09-23T10:48:57.572Z,19.55
2022-09-23T10:51:33.171Z,20.05
2022-09-23T10:54:22.232Z,20.27
2022-09-23T10:57:01.970Z,19.94
2022-09-23T10:59:40.177Z,20.81
2022-09-23T11:02:52.513Z,21.20
2022-09-23T11:05:23.700Z,21.31
2022-09-23T11:08:09.174Z,21.65
2022-09-23T11:10:52.113Z,22.11
2022-09-23T11:13:27.582Z,22.09
2022-09-23T11:16:15.383Z,22.29
2022-09-23T11:18:55.724Z,22.60
2022-09-23T11:21:59.835Z,23.13
2022-09-23T11:25:04.687Z,23.30
2022-09-23T11:27:52.450Z,23.38
2022-09-23T11:30:20.315Z,23.70
2022-09-23T11:33:05.052Z,23.04
2022-09-23T11:35:37.862Z,23.36
2022-09-23T11:38:27.606Z,22.93
2022-09-23T11:40:58.747Z,22.36
2022-09-23T11:43:33.462Z,21.89
2022-09-23T11:46:18.274Z,22.69
2022-09-23T11:48:54.029Z,22.28
2022-09-23T11:51:39.507Z,22.57
2022-09-23T11:54:30.853Z,22.04
2022-09-23T11:57:02.718Z,21.87
2022-09-23T11:59:54.925Z,21.88
2022-09-23T12:02:31.095Z,21.32
2022-09-23T12:05:03.553Z,21.21
2022-09-23T12:08:10.274Z,21.23
2022-09-23T12:10:45.794Z,20.78
2022-09-23T12:13:24.406Z,20.62
2022-09-23T12:15:59.901Z,20.71
2022-09-23T12:18:42.108Z,20.47
2022-09-23T12:21:27.110Z,20.46
2022-09-23T12:24:19.120Z,20.26
2022-09-23T12:26:53.233Z,20.51
2022-09-23T12:29:20.541Z,20.58
2022-09-23T12:31:49.747Z,20.32
2022-09-23T12:34:28.853Z,19.95
2022-09-23T12:37:02.983Z,19.74
2022-09-23T12:39:32.141Z,19.74
2022-09-23T12:42:20.026Z,19.65
2022-09-23T12:44:48.649Z,19.54
2022-09-23T12:47:15.003Z,19.49
2022-09-23T12:49:42.862Z,19.23
2022-09-23T12:52:12.005Z,19.06
2022-09-23T12:54:39.981Z,19.08
2022-09-23T12:57:10.069Z,19.05
2022-09-23T12:59:52.497Z,18.92
2022-09-23T13:02:27.957Z,18.70
2022-09-23T13:05:21.359Z,18.55
2022-09-23T13:07:49.885Z,18.46
2022-09-23T13:10:30.980Z,18.42
2022-09-23T13:12:58.915Z,18.28
2022-09-23T13:15:33.967Z,18.25
2022-09-23T13:18:18.501Z,18.08
2022-09-23T13:20:46.932Z,18.24
2022-09-23T13:23:21.708Z,18.33
2022-09-23T13:25:48.338Z,18.23
2022-09-23T13:28:36.785Z,18.21
2022-09-23T13:31:06.106Z,18.29
2022-09-23T13:33:45.961Z,18.27
2022-09-23T13:36:15.495Z,18.31
2022-09-23T13:38:42.245Z,18.29
2022-09-23T13:41:25.092Z,18.19
2022-09-23T13:43:58.557Z,18.06
2022-09-23T13:46:29.872Z,18.13
2022-09-23T13:48:56.745Z,18.15
2022-09-23T13:51:30.188Z,18.08
2022-09-23T13:53:59.010Z,18.09
2022-09-23T13:56:27.976Z,18.08
2022-09-23T13:58:56.628Z,18.10
2022-09-23T14:01:32.206Z,18.15
2022-09-23T14:03:59.420Z,18.05
2022-09-23T14:06:27.383Z,18.01
2022-09-23T14:08:54.155Z,17.90
2022-09-23T14:11:29.423Z,17.97
2022-09-23T14:13:56.855Z,17.81
2022-09-23T14:16:26.949Z,17.81
2022-09-23T14:18:59.337Z,17.88
2022-09-23T14:21:38.826Z,17.89
2022-09-23T14:24:11.081Z,17.89
2022-09-23T14:26:39.269Z,17.89
2022-09-23T14:29:11.886Z,17.94
2022-09-23T14:31:38.627Z,17.87
2022-09-23T14:34:05.962Z,17.88
2022-09-23T14:36:54.808Z,17.85
2022-09-23T14:39:21.397Z,17.79
2022-09-23T14:41:47.817Z,17.84
2022-09-23T14:44:28.039Z,17.89
2022-09-23T14:46:59.657Z,17.89
2022-09-23T14:49:27.274Z,17.80
2022-09-23T14:51:57.638Z,17.73
2022-09-23T14:54:39.376Z,17.68
2022-09-23T14:57:25.331Z,17.69
2022-09-23T14:59:54.814Z,17.62
2022-09-23T15:02:32.535Z,17.65
2022-09-23T15:05:20.365Z,17.57
2022-09-23T15:07:52.070Z,17.56
2022-09-23T15:10:23.387Z,17.55
2022-09-23T15:12:51.606Z,17.45
2022-09-23T15:15:18.853Z,17.47
2022-09-23T15:17:45.972Z,17.46
2022-09-23T15:20:23.219Z,17.46
2022-09-23T15:22:54.211Z,17.39
2022-09-23T15:25:28.077Z,17.31
2022-09-23T15:27:59.132Z,17.33
2022-09-23T15:30:25.864Z,17.35
2022-09-23T15:32:52.462Z,17.27
2022-09-23T15:35:22.577Z,17.31
2022-09-23T15:37:51.417Z,17.30
2022-09-23T15:40:24.446Z,17.31
2022-09-23T15:42:55.331Z,17.31
2022-09-23T15:45:35.788Z,17.25
2022-09-23T15:48:08.453Z,17.16
2022-09-23T15:50:36.269Z,17.17
2022-09-23T15:53:02.941Z,17.12
2022-09-23T15:55:29.495Z,17.09
2022-09-23T15:57:55.965Z,17.04
2022-09-23T16:00:22.363Z,17.02
2022-09-23T16:02:49.868Z,16.95
2022-09-23T16:05:22.049Z,16.95
2022-09-23T16:07:49.190Z,16.95
2022-09-23T16:10:15.647Z,16.92
2022-09-23T16:12:42.146Z,16.84
2022-09-23T16:15:16.204Z,16.77
2022-09-23T16:17:44.174Z,16.73
2022-09-23T16:20:12.086Z,16.68
2022-09-23T16:22:39.132Z,16.55
2022-09-23T16:25:06.342Z,16.62
2022-09-23T16:27:34.002Z,16.67
2022-09-23T16:30:00.357Z,16.63
2022-09-23T16:32:27.150Z,16.63
2022-09-23T16:34:53.528Z,16.52
2022-09-23T16:37:21.058Z,16.33
2022-09-23T16:39:49.597Z,16.21
2022-09-23T16:42:16.153Z,15.98
2022-09-23T16:44:42.773Z,15.86
2022-09-23T16:47:09.454Z,15.79
2022-09-23T16:49:35.902Z,15.56
2022-09-23T16:52:02.397Z,15.35
2022-09-23T16:54:28.822Z,15.16
2022-09-23T16:56:55.176Z,15.26
2022-09-23T16:59:21.691Z,15.26
2022-09-23T17:02:06.489Z,15.09
2022-09-23T17:04:32.938Z,14.98
2022-09-23T17:06:59.355Z,14.80
2022-09-23T17:09:30.166Z,14.91
2022-09-23T17:12:09.210Z,14.92
2022-09-23T17:14:35.584Z,14.83
2022-09-23T17:17:02.309Z,14.82
2022-09-23T17:19:29.098Z,14.75
2022-09-23T17:21:55.528Z,14.61
2022-09-23T17:24:21.954Z,14.52
2022-09-23T17:26:52.794Z,14.60
2022-09-23T17:29:19.756Z,14.59
2022-09-23T17:31:46.596Z,14.31
2022-09-23T17:34:13.180Z,14.41
2022-09-23T17:36:40.300Z,14.37
2022-09-23T17:39:07.029Z,14.08
2022-09-23T17:41:33.514Z,14.22
2022-09-23T17:44:00.637Z,13.95
2022-09-23T17:46:28.846Z,13.79
2022-09-23T17:48:55.827Z,13.80
2022-09-23T17:51:24.025Z,13.94
2022-09-23T17:53:50.782Z,13.98
2022-09-23T17:56:21.504Z,13.73
2022-09-23T17:58:49.406Z,13.68
2022-09-23T18:01:21.826Z,13.82
2022-09-23T18:03:52.970Z,13.79
2022-09-23T18:06:21.250Z,13.53
2022-09-23T18:08:49.625Z,13.43
2022-09-23T18:11:25.362Z,13.59
2022-09-23T18:14:03.615Z,13.35
2022-09-23T18:16:34.311Z,13.48
2022-09-23T18:19:02.147Z,13.49
2022-09-23T18:21:32.519Z,13.57
2022-09-23T18:24:21.626Z,13.48
2022-09-23T18:26:47.532Z,13.16
2022-09-23T18:29:14.066Z,13.12
2022-09-23T18:31:41.029Z,13.18
2022-09-23T18:34:11.462Z,13.32
2022-09-23T18:36:38.338Z,13.16
2022-09-23T18:39:05.441Z,13.22
2022-09-23T18:41:31.810Z,13.27
2022-09-23T18:43:58.336Z,13.10
2022-09-23T18:46:27.059Z,13.05
2022-09-23T18:49:12.237Z,13.10
2022-09-23T18:51:50.482Z,13.18
2022-09-23T18:54:17.117Z,13.25
2022-09-23T18:56:44.530Z,13.09
2022-09-23T18:59:19.545Z,13.15
2022-09-23T19:01:46.906Z,13.16
2022-09-23T19:04:15.714Z,12.99
2022-09-23T19:06:42.062Z,13.04
2022-09-23T19:09:09.086Z,13.10
2022-09-23T19:11:36.437Z,13.00
2022-09-23T19:14:05.855Z,13.02
2022-09-23T19:16:32.802Z,12.87
2022-09-23T19:19:00.263Z,12.83
2022-09-23T19:21:27.922Z,12.85
2022-09-23T19:23:57.069Z,12.90
2022-09-23T19:26:27.841Z,12.82
2022-09-23T19:28:56.535Z,12.84
2022-09-23T19:31:25.506Z,12.87
2022-09-23T19:33:59.575Z,12.75
2022-09-23T19:36:31.682Z,12.82
2022-09-23T19:39:03.957Z,12.69
2022-09-23T19:41:32.174Z,12.80
2022-09-23T19:44:02.439Z,12.69
2022-09-23T19:46:30.954Z,12.54
2022-09-23T19:48:57.885Z,12.65
2022-09-23T19:51:24.346Z,12.69
2022-09-23T19:53:50.725Z,12.67
2022-09-23T19:56:18.032Z,12.67
2022-09-23T19:58:47.228Z,12.72
2022-09-23T20:01:16.176Z,12.64
2022-09-23T20:03:44.496Z,12.52
2022-09-23T20:06:11.071Z,12.51
2022-09-23T20:08:38.470Z,12.47
2022-09-23T20:11:11.561Z,12.44
2022-09-23T20:13:43.937Z,12.45
2022-09-23T20:16:13.771Z,12.53
2022-09-23T20:18:41.734Z,12.56
2022-09-23T20:21:11.269Z,12.64
2022-09-23T20:23:37.734Z,12.70
2022-09-23T20:26:23.922Z,12.71
2022-09-23T20:28:50.825Z,12.52
2022-09-23T20:31:20.835Z,12.47
2022-09-23T20:33:51.849Z,12.40
2022-09-23T20:36:18.431Z,12.38
2022-09-23T20:38:44.741Z,12.47
2022-09-23T20:41:11.258Z,12.53
2022-09-23T20:43:37.656Z,12.60
2022-09-23T20:46:05.295Z,12.61
2022-09-23T20:48:31.763Z,12.49
2022-09-23T20:51:05.664Z,12.57
2022-09-23T20:53:32.598Z,12.59
2022-09-23T20:55:59.550Z,12.50
2022-09-23T20:58:28.783Z,12.69
2022-09-23T21:01:10.548Z,12.78
2022-09-23T21:03:39.883Z,12.67
2022-09-23T21:06:08.522Z,12.71
2022-09-23T21:08:37.101Z,12.74
2022-09-23T21:11:07.990Z,12.71
2022-09-23T21:13:34.579Z,12.75
2022-09-23T21:16:05.958Z,12.74
2022-09-23T21:18:32.442Z,12.64
2022-09-23T21:20:59.973Z,12.65
2022-09-23T21:23:28.428Z,12.52
2022-09-23T21:26:08.199Z,12.46
2022-09-23T21:28:36.577Z,12.48
2022-09-23T21:31:11.944Z,12.53
2022-09-23T21:33:38.789Z,12.49
2022-09-23T21:36:07.062Z,12.39
2022-09-23T21:38:37.530Z,12.30
2022-09-23T21:41:07.059Z,12.18
2022-09-23T21:43:35.922Z,12.31
2022-09-23T21:46:05.037Z,12.41
2022-09-23T21:48:33.688Z,12.40
2022-09-23T21:51:20.290Z,12.44
2022-09-23T21:53:47.045Z,12.37
2022-09-23T21:56:20.462Z,12.40
2022-09-23T21:58:47.418Z,12.42
2022-09-23T22:01:19.288Z,12.33
2022-09-23T22:03:56.438Z,12.28
2022-09-23T22:06:26.878Z,12.27
2022-09-23T22:08:59.084Z,12.38
2022-09-23T22:11:49.941Z,12.34
2022-09-23T22:14:17.776Z,12.29
2022-09-23T22:16:44.558Z,12.28
2022-09-23T22:19:12.536Z,12.20
2022-09-23T22:21:41.627Z,12.26
2022-09-23T22:24:09.627Z,12.18
2022-09-23T22:26:38.743Z,12.23
2022-09-23T22:29:26.555Z,12.24
2022-09-23T22:32:11.799Z,12.39
2022-09-23T22:34:49.422Z,12.41
2022-09-23T22:37:19.472Z,12.45
2022-09-23T22:39:45.979Z,12.42
2022-09-23T22:42:16.023Z,12.49
2022-09-23T22:44:42.631Z,12.56
2022-09-23T22:47:10.351Z,12.62
2022-09-23T22:49:36.959Z,12.56
2022-09-23T22:52:07.961Z,12.60
2022-09-23T22:54:35.212Z,12.52
2022-09-23T22:57:05.096Z,12.53
2022-09-23T22:59:31.512Z,12.52
2022-09-23T23:02:00.351Z,12.55
2022-09-23T23:04:27.519Z,12.46
2022-09-23T23:06:53.889Z,12.39
2022-09-23T23:09:20.320Z,12.45
2022-09-23T23:11:47.041Z,12.50
2022-09-23T23:14:16.156Z,12.51
2022-09-23T23:16:46.628Z,12.31
2022-09-23T23:19:16.745Z,12.41
2022-09-23T23:21:44.718Z,12.34
2022-09-23T23:24:22.233Z,12.29
2022-09-23T23:26:49.898Z,12.35
2022-09-23T23:29:17.806Z,12.32
2022-09-23T23:31:44.766Z,12.40
2022-09-23T23:34:13.671Z,12.36
2022-09-23T23:36:41.365Z,12.34
2022-09-23T23:39:08.020Z,12.20
2022-09-23T23:41:34.406Z,12.29
2022-09-23T23:44:01.116Z,12.29
2022-09-23T23:46:29.604Z,12.37
2022-09-23T23:48:56.940Z,12.26
2022-09-23T23:51:25.250Z,12.17
2022-09-23T23:53:53.870Z,12.12
2022-09-23T23:56:24.798Z,12.09
2022-09-23T23:58:59.337Z,12.23
